sensor_id;sensor_type;location;lat;lon;timestamp;P1;durP1;ratioP1;P2;durP2;ratioP2
47772;SDS011;33534;51.028;13.716;2024-01-27T00:01:15;52.72;;;33.20;;
47772;SDS011;33534;51.028;13.716;2024-01-27T00:03:40;43.92;;;30.75;;
47772;SDS011;33534;51.028;13.716;2024-01-27T00:06:06;45.80;;;31.10;;
47772;SDS011;33534;51.028;13.716;2024-01-27T00:08:31;48.33;;;30.85;;
47772;SDS011;33534;51.028;13.716;2024-01-27T00:10:57;46.90;;;31.02;;
47772;SDS011;33534;51.028;13.716;2024-01-27T00:13:23;47.53;;;30.13;;
47772;SDS011;33534;51.028;13.716;2024-01-27T00:15:48;51.33;;;29.52;;
47772;SDS011;33534;51.028;13.716;2024-01-27T00:18:15;46.25;;;30.75;;
47772;SDS011;33534;51.028;13.716;2024-01-27T00:20:41;47.28;;;30.63;;
47772;SDS011;33534;51.028;13.716;2024-01-27T00:23:07;49.15;;;29.58;;
47772;SDS011;33534;51.028;13.716;2024-01-27T00:25:33;45.58;;;30.35;;
47772;SDS011;33534;51.028;13.716;2024-01-27T00:27:59;46.08;;;30.00;;
47772;SDS011;33534;51.028;13.716;2024-01-27T00:30:24;41.03;;;28.13;;
47772;SDS011;33534;51.028;13.716;2024-01-27T00:32:51;41.75;;;28.40;;
47772;SDS011;33534;51.028;13.716;2024-01-27T00:35:17;39.42;;;27.40;;
47772;SDS011;33534;51.028;13.716;2024-01-27T00:37:42;42.67;;;29.15;;
47772;SDS011;33534;51.028;13.716;2024-01-27T00:40:11;41.92;;;28.50;;
47772;SDS011;33534;51.028;13.716;2024-01-27T00:42:37;40.00;;;27.27;;
47772;SDS011;33534;51.028;13.716;2024-01-27T00:45:04;42.08;;;27.45;;
47772;SDS011;33534;51.028;13.716;2024-01-27T00:47:30;42.72;;;27.70;;
47772;SDS011;33534;51.028;13.716;2024-01-27T00:49:56;40.83;;;26.92;;
47772;SDS011;33534;51.028;13.716;2024-01-27T00:52:22;39.90;;;25.92;;
47772;SDS011;33534;51.028;13.716;2024-01-27T00:54:47;43.20;;;26.73;;
47772;SDS011;33534;51.028;13.716;2024-01-27T00:57:13;42.20;;;26.55;;
47772;SDS011;33534;51.028;13.716;2024-01-27T00:59:38;53.97;;;26.50;;
47772;SDS011;33534;51.028;13.716;2024-01-27T01:02:05;35.55;;;24.35;;
47772;SDS011;33534;51.028;13.716;2024-01-27T01:04:31;36.58;;;25.02;;
47772;SDS011;33534;51.028;13.716;2024-01-27T01:06:57;38.13;;;25.15;;
47772;SDS011;33534;51.028;13.716;2024-01-27T01:09:22;37.45;;;24.10;;
47772;SDS011;33534;51.028;13.716;2024-01-27T01:11:48;37.47;;;24.40;;
47772;SDS011;33534;51.028;13.716;2024-01-27T01:14:14;33.90;;;23.45;;
47772;SDS011;33534;51.028;13.716;2024-01-27T01:16:40;34.50;;;23.83;;
47772;SDS011;33534;51.028;13.716;2024-01-27T01:19:06;43.88;;;24.17;;
47772;SDS011;33534;51.028;13.716;2024-01-27T01:21:31;35.58;;;23.40;;
47772;SDS011;33534;51.028;13.716;2024-01-27T01:23:57;35.95;;;23.55;;
47772;SDS011;33534;51.028;13.716;2024-01-27T01:26:24;38.13;;;23.48;;
47772;SDS011;33534;51.028;13.716;2024-01-27T01:28:50;38.00;;;22.38;;
47772;SDS011;33534;51.028;13.716;2024-01-27T01:31:16;39.08;;;22.27;;
47772;SDS011;33534;51.028;13.716;2024-01-27T01:33:42;36.25;;;23.42;;
47772;SDS011;33534;51.028;13.716;2024-01-27T01:36:08;36.97;;;22.83;;
47772;SDS011;33534;51.028;13.716;2024-01-27T01:38:34;37.20;;;22.88;;
47772;SDS011;33534;51.028;13.716;2024-01-27T01:40:59;32.45;;;22.65;;
47772;SDS011;33534;51.028;13.716;2024-01-27T01:43:25;35.25;;;22.85;;
47772;SDS011;33534;51.028;13.716;2024-01-27T01:45:51;33.42;;;21.48;;
47772;SDS011;33534;51.028;13.716;2024-01-27T01:48:18;32.80;;;20.58;;
47772;SDS011;33534;51.028;13.716;2024-01-27T01:50:45;29.95;;;20.80;;
47772;SDS011;33534;51.028;13.716;2024-01-27T01:53:11;30.38;;;20.23;;
47772;SDS011;33534;51.028;13.716;2024-01-27T01:55:38;32.17;;;21.88;;
47772;SDS011;33534;51.028;13.716;2024-01-27T01:58:03;29.52;;;20.10;;
47772;SDS011;33534;51.028;13.716;2024-01-27T02:00:29;34.13;;;20.83;;
47772;SDS011;33534;51.028;13.716;2024-01-27T02:02:55;28.70;;;19.15;;
47772;SDS011;33534;51.028;13.716;2024-01-27T02:05:21;30.70;;;19.50;;
47772;SDS011;33534;51.028;13.716;2024-01-27T02:07:46;29.25;;;19.25;;
47772;SDS011;33534;51.028;13.716;2024-01-27T02:10:13;32.25;;;20.73;;
47772;SDS011;33534;51.028;13.716;2024-01-27T02:12:41;31.77;;;19.27;;
47772;SDS011;33534;51.028;13.716;2024-01-27T02:15:10;35.38;;;19.45;;
47772;SDS011;33534;51.028;13.716;2024-01-27T02:17:40;25.73;;;17.83;;
47772;SDS011;33534;51.028;13.716;2024-01-27T02:20:06;43.63;;;18.55;;
47772;SDS011;33534;51.028;13.716;2024-01-27T02:22:33;28.38;;;18.38;;
47772;SDS011;33534;51.028;13.716;2024-01-27T02:25:00;27.65;;;17.17;;
47772;SDS011;33534;51.028;13.716;2024-01-27T02:27:26;27.33;;;18.13;;
47772;SDS011;33534;51.028;13.716;2024-01-27T02:29:51;26.88;;;17.40;;
47772;SDS011;33534;51.028;13.716;2024-01-27T02:32:17;33.90;;;18.45;;
47772;SDS011;33534;51.028;13.716;2024-01-27T02:34:43;26.90;;;17.60;;
47772;SDS011;33534;51.028;13.716;2024-01-27T02:37:09;24.85;;;16.88;;
47772;SDS011;33534;51.028;13.716;2024-01-27T02:39:34;25.65;;;16.02;;
47772;SDS011;33534;51.028;13.716;2024-01-27T02:42:00;28.25;;;16.73;;
47772;SDS011;33534;51.028;13.716;2024-01-27T02:44:26;23.85;;;16.65;;
47772;SDS011;33534;51.028;13.716;2024-01-27T02:46:51;23.73;;;16.00;;
47772;SDS011;33534;51.028;13.716;2024-01-27T02:49:17;26.75;;;17.27;;
47772;SDS011;33534;51.028;13.716;2024-01-27T02:51:43;26.48;;;16.45;;
47772;SDS011;33534;51.028;13.716;2024-01-27T02:54:09;22.10;;;15.75;;
47772;SDS011;33534;51.028;13.716;2024-01-27T02:56:35;26.48;;;16.38;;
47772;SDS011;33534;51.028;13.716;2024-01-27T02:59:00;24.50;;;16.10;;
47772;SDS011;33534;51.028;13.716;2024-01-27T03:01:26;26.08;;;15.32;;
47772;SDS011;33534;51.028;13.716;2024-01-27T03:03:52;22.30;;;14.98;;
47772;SDS011;33534;51.028;13.716;2024-01-27T03:06:17;25.38;;;15.10;;
47772;SDS011;33534;51.028;13.716;2024-01-27T03:08:43;27.88;;;15.35;;
47772;SDS011;33534;51.028;13.716;2024-01-27T03:11:08;22.00;;;14.70;;
47772;SDS011;33534;51.028;13.716;2024-01-27T03:13:34;22.83;;;14.15;;
47772;SDS011;33534;51.028;13.716;2024-01-27T03:16:00;24.38;;;14.48;;
47772;SDS011;33534;51.028;13.716;2024-01-27T03:18:25;23.02;;;14.07;;
47772;SDS011;33534;51.028;13.716;2024-01-27T03:20:51;20.98;;;13.77;;
47772;SDS011;33534;51.028;13.716;2024-01-27T03:23:17;28.80;;;15.10;;
47772;SDS011;33534;51.028;13.716;2024-01-27T03:25:42;21.25;;;13.93;;
47772;SDS011;33534;51.028;13.716;2024-01-27T03:28:08;22.50;;;14.02;;
47772;SDS011;33534;51.028;13.716;2024-01-27T03:30:34;21.15;;;13.90;;
47772;SDS011;33534;51.028;13.716;2024-01-27T03:32:59;21.17;;;12.85;;
47772;SDS011;33534;51.028;13.716;2024-01-27T03:35:25;21.58;;;12.13;;
47772;SDS011;33534;51.028;13.716;2024-01-27T03:37:51;34.13;;;13.80;;
47772;SDS011;33534;51.028;13.716;2024-01-27T03:40:16;22.80;;;13.02;;
47772;SDS011;33534;51.028;13.716;2024-01-27T03:42:42;19.60;;;12.55;;
47772;SDS011;33534;51.028;13.716;2024-01-27T03:45:08;22.63;;;12.93;;
47772;SDS011;33534;51.028;13.716;2024-01-27T03:47:34;18.05;;;12.93;;
47772;SDS011;33534;51.028;13.716;2024-01-27T03:49:59;22.40;;;12.63;;
47772;SDS011;33534;51.028;13.716;2024-01-27T03:52:25;21.92;;;12.60;;
47772;SDS011;33534;51.028;13.716;2024-01-27T03:54:50;24.35;;;12.45;;
47772;SDS011;33534;51.028;13.716;2024-01-27T03:57:16;19.48;;;11.82;;
47772;SDS011;33534;51.028;13.716;2024-01-27T03:59:42;20.25;;;12.10;;
47772;SDS011;33534;51.028;13.716;2024-01-27T04:02:07;23.75;;;11.60;;
47772;SDS011;33534;51.028;13.716;2024-01-27T04:04:33;22.40;;;12.90;;
47772;SDS011;33534;51.028;13.716;2024-01-27T04:06:59;20.08;;;12.35;;
47772;SDS011;33534;51.028;13.716;2024-01-27T04:09:26;18.65;;;10.95;;
47772;SDS011;33534;51.028;13.716;2024-01-27T04:11:52;17.60;;;10.98;;
47772;SDS011;33534;51.028;13.716;2024-01-27T04:14:18;18.75;;;10.90;;
47772;SDS011;33534;51.028;13.716;2024-01-27T04:16:43;19.48;;;11.38;;
47772;SDS011;33534;51.028;13.716;2024-01-27T04:19:09;24.05;;;11.02;;
47772;SDS011;33534;51.028;13.716;2024-01-27T04:21:34;15.90;;;10.45;;
47772;SDS011;33534;51.028;13.716;2024-01-27T04:24:00;17.85;;;11.65;;
47772;SDS011;33534;51.028;13.716;2024-01-27T04:26:26;14.02;;;10.70;;
47772;SDS011;33534;51.028;13.716;2024-01-27T04:28:52;16.75;;;10.32;;
47772;SDS011;33534;51.028;13.716;2024-01-27T04:31:18;18.42;;;10.80;;
47772;SDS011;33534;51.028;13.716;2024-01-27T04:33:43;19.83;;;11.07;;
47772;SDS011;33534;51.028;13.716;2024-01-27T04:36:09;18.88;;;10.43;;
47772;SDS011;33534;51.028;13.716;2024-01-27T04:38:35;20.60;;;10.73;;
47772;SDS011;33534;51.028;13.716;2024-01-27T04:41:01;20.23;;;10.82;;
47772;SDS011;33534;51.028;13.716;2024-01-27T04:43:27;18.30;;;10.25;;
47772;SDS011;33534;51.028;13.716;2024-01-27T04:45:54;19.67;;;10.52;;
47772;SDS011;33534;51.028;13.716;2024-01-27T04:48:19;17.63;;;10.45;;
47772;SDS011;33534;51.028;13.716;2024-01-27T04:50:45;16.60;;;10.05;;
47772;SDS011;33534;51.028;13.716;2024-01-27T04:53:11;16.25;;;9.55;;
47772;SDS011;33534;51.028;13.716;2024-01-27T04:55:37;14.13;;;9.70;;
47772;SDS011;33534;51.028;13.716;2024-01-27T04:58:03;17.58;;;10.18;;
47772;SDS011;33534;51.028;13.716;2024-01-27T05:00:29;18.77;;;9.15;;
47772;SDS011;33534;51.028;13.716;2024-01-27T05:02:55;14.43;;;9.00;;
47772;SDS011;33534;51.028;13.716;2024-01-27T05:05:22;14.75;;;9.20;;
47772;SDS011;33534;51.028;13.716;2024-01-27T05:07:48;14.15;;;8.85;;
47772;SDS011;33534;51.028;13.716;2024-01-27T05:10:17;13.90;;;8.93;;
47772;SDS011;33534;51.028;13.716;2024-01-27T05:12:42;14.32;;;8.57;;
47772;SDS011;33534;51.028;13.716;2024-01-27T05:15:09;15.50;;;9.38;;
47772;SDS011;33534;51.028;13.716;2024-01-27T05:17:36;13.73;;;9.10;;
47772;SDS011;33534;51.028;13.716;2024-01-27T05:20:01;15.43;;;8.45;;
47772;SDS011;33534;51.028;13.716;2024-01-27T05:22:29;13.73;;;9.00;;
47772;SDS011;33534;51.028;13.716;2024-01-27T05:24:55;12.45;;;8.02;;
47772;SDS011;33534;51.028;13.716;2024-01-27T05:27:20;14.55;;;8.20;;
47772;SDS011;33534;51.028;13.716;2024-01-27T05:29:46;13.07;;;8.10;;
47772;SDS011;33534;51.028;13.716;2024-01-27T05:32:12;14.18;;;8.77;;
47772;SDS011;33534;51.028;13.716;2024-01-27T05:34:37;13.25;;;8.23;;
47772;SDS011;33534;51.028;13.716;2024-01-27T05:37:03;26.38;;;8.57;;
47772;SDS011;33534;51.028;13.716;2024-01-27T05:39:29;16.02;;;8.05;;
47772;SDS011;33534;51.028;13.716;2024-01-27T05:41:54;12.07;;;7.75;;
47772;SDS011;33534;51.028;13.716;2024-01-27T05:44:20;23.58;;;8.52;;
47772;SDS011;33534;51.028;13.716;2024-01-27T05:46:46;14.95;;;7.40;;
47772;SDS011;33534;51.028;13.716;2024-01-27T05:49:12;13.75;;;8.25;;
47772;SDS011;33534;51.028;13.716;2024-01-27T05:51:37;15.35;;;8.15;;
47772;SDS011;33534;51.028;13.716;2024-01-27T05:54:03;19.17;;;7.78;;
47772;SDS011;33534;51.028;13.716;2024-01-27T05:56:29;12.95;;;7.57;;
47772;SDS011;33534;51.028;13.716;2024-01-27T05:58:54;14.30;;;7.75;;
47772;SDS011;33534;51.028;13.716;2024-01-27T06:01:20;17.90;;;7.72;;
47772;SDS011;33534;51.028;13.716;2024-01-27T06:03:46;20.05;;;7.78;;
47772;SDS011;33534;51.028;13.716;2024-01-27T06:06:12;14.07;;;6.82;;
47772;SDS011;33534;51.028;13.716;2024-01-27T06:08:38;15.88;;;7.53;;
47772;SDS011;33534;51.028;13.716;2024-01-27T06:11:03;10.57;;;7.15;;
47772;SDS011;33534;51.028;13.716;2024-01-27T06:13:29;12.60;;;6.82;;
47772;SDS011;33534;51.028;13.716;2024-01-27T06:15:55;17.70;;;7.25;;
47772;SDS011;33534;51.028;13.716;2024-01-27T06:18:21;15.23;;;7.35;;
47772;SDS011;33534;51.028;13.716;2024-01-27T06:20:47;15.73;;;6.90;;
47772;SDS011;33534;51.028;13.716;2024-01-27T06:23:12;13.95;;;7.65;;
47772;SDS011;33534;51.028;13.716;2024-01-27T06:25:38;14.13;;;6.22;;
47772;SDS011;33534;51.028;13.716;2024-01-27T06:28:04;24.85;;;6.85;;
47772;SDS011;33534;51.028;13.716;2024-01-27T06:30:29;13.65;;;4.75;;
47772;SDS011;33534;51.028;13.716;2024-01-27T06:32:55;18.17;;;4.53;;
47772;SDS011;33534;51.028;13.716;2024-01-27T06:35:21;12.15;;;4.25;;
47772;SDS011;33534;51.028;13.716;2024-01-27T06:37:46;16.38;;;4.40;;
47772;SDS011;33534;51.028;13.716;2024-01-27T06:40:12;16.05;;;4.20;;
47772;SDS011;33534;51.028;13.716;2024-01-27T06:42:38;8.57;;;3.50;;
47772;SDS011;33534;51.028;13.716;2024-01-27T06:45:04;18.95;;;5.60;;
47772;SDS011;33534;51.028;13.716;2024-01-27T06:47:30;16.35;;;5.90;;
47772;SDS011;33534;51.028;13.716;2024-01-27T06:49:56;29.65;;;6.70;;
47772;SDS011;33534;51.028;13.716;2024-01-27T06:52:22;11.63;;;5.93;;
47772;SDS011;33534;51.028;13.716;2024-01-27T06:54:47;14.15;;;5.70;;
47772;SDS011;33534;51.028;13.716;2024-01-27T06:57:19;9.73;;;5.30;;
47772;SDS011;33534;51.028;13.716;2024-01-27T06:59:49;26.98;;;7.05;;
47772;SDS011;33534;51.028;13.716;2024-01-27T07:02:26;24.63;;;6.80;;
47772;SDS011;33534;51.028;13.716;2024-01-27T07:04:52;37.35;;;6.88;;
47772;SDS011;33534;51.028;13.716;2024-01-27T07:07:22;21.88;;;6.32;;
47772;SDS011;33534;51.028;13.716;2024-01-27T07:09:50;19.98;;;6.28;;
47772;SDS011;33534;51.028;13.716;2024-01-27T07:12:16;16.30;;;6.60;;
47772;SDS011;33534;51.028;13.716;2024-01-27T07:14:41;13.88;;;5.40;;
47772;SDS011;33534;51.028;13.716;2024-01-27T07:17:07;22.95;;;6.32;;
47772;SDS011;33534;51.028;13.716;2024-01-27T07:19:32;19.48;;;6.03;;
47772;SDS011;33534;51.028;13.716;2024-01-27T07:21:58;16.35;;;5.85;;
47772;SDS011;33534;51.028;13.716;2024-01-27T07:24:28;14.57;;;5.57;;
47772;SDS011;33534;51.028;13.716;2024-01-27T07:26:54;19.35;;;5.90;;
47772;SDS011;33534;51.028;13.716;2024-01-27T07:29:20;17.52;;;5.63;;
47772;SDS011;33534;51.028;13.716;2024-01-27T07:31:46;15.70;;;5.72;;
47772;SDS011;33534;51.028;13.716;2024-01-27T07:34:12;19.80;;;5.80;;
47772;SDS011;33534;51.028;13.716;2024-01-27T07:36:38;19.15;;;6.00;;
47772;SDS011;33534;51.028;13.716;2024-01-27T07:39:04;26.17;;;6.07;;
47772;SDS011;33534;51.028;13.716;2024-01-27T07:41:32;23.42;;;6.68;;
47772;SDS011;33534;51.028;13.716;2024-01-27T07:44:11;23.45;;;5.88;;
47772;SDS011;33534;51.028;13.716;2024-01-27T07:46:38;17.50;;;5.50;;
47772;SDS011;33534;51.028;13.716;2024-01-27T07:49:05;23.42;;;6.25;;
47772;SDS011;33534;51.028;13.716;2024-01-27T07:51:31;19.17;;;5.97;;
47772;SDS011;33534;51.028;13.716;2024-01-27T07:53:58;19.08;;;6.18;;
47772;SDS011;33534;51.028;13.716;2024-01-27T07:56:24;14.55;;;5.80;;
47772;SDS011;33534;51.028;13.716;2024-01-27T07:58:49;14.20;;;5.32;;
47772;SDS011;33534;51.028;13.716;2024-01-27T08:01:18;17.25;;;5.85;;
47772;SDS011;33534;51.028;13.716;2024-01-27T08:03:44;22.20;;;6.43;;
47772;SDS011;33534;51.028;13.716;2024-01-27T08:06:15;20.70;;;7.32;;
47772;SDS011;33534;51.028;13.716;2024-01-27T08:08:43;18.58;;;6.30;;
47772;SDS011;33534;51.028;13.716;2024-01-27T08:11:17;17.95;;;6.03;;
47772;SDS011;33534;51.028;13.716;2024-01-27T08:13:43;31.98;;;6.55;;
47772;SDS011;33534;51.028;13.716;2024-01-27T08:16:09;23.13;;;6.60;;
47772;SDS011;33534;51.028;13.716;2024-01-27T08:18:37;19.52;;;6.40;;
47772;SDS011;33534;51.028;13.716;2024-01-27T08:21:03;18.00;;;5.57;;
47772;SDS011;33534;51.028;13.716;2024-01-27T08:23:29;14.85;;;6.13;;
47772;SDS011;33534;51.028;13.716;2024-01-27T08:25:55;15.30;;;5.63;;
47772;SDS011;33534;51.028;13.716;2024-01-27T08:28:21;16.90;;;5.68;;
47772;SDS011;33534;51.028;13.716;2024-01-27T08:30:47;16.25;;;5.63;;
47772;SDS011;33534;51.028;13.716;2024-01-27T08:33:12;12.75;;;5.50;;
47772;SDS011;33534;51.028;13.716;2024-01-27T08:35:38;5.90;;;2.42;;
47772;SDS011;33534;51.028;13.716;2024-01-27T08:38:04;10.52;;;2.65;;
47772;SDS011;33534;51.028;13.716;2024-01-27T08:40:31;7.75;;;2.92;;
47772;SDS011;33534;51.028;13.716;2024-01-27T08:42:57;7.97;;;2.80;;
47772;SDS011;33534;51.028;13.716;2024-01-27T08:45:22;9.85;;;3.50;;
47772;SDS011;33534;51.028;13.716;2024-01-27T08:47:48;9.88;;;3.55;;
47772;SDS011;33534;51.028;13.716;2024-01-27T08:50:14;8.52;;;3.85;;
47772;SDS011;33534;51.028;13.716;2024-01-27T08:52:39;14.45;;;4.80;;
47772;SDS011;33534;51.028;13.716;2024-01-27T08:55:05;16.23;;;3.97;;
47772;SDS011;33534;51.028;13.716;2024-01-27T08:57:31;16.42;;;4.45;;
47772;SDS011;33534;51.028;13.716;2024-01-27T08:59:57;15.98;;;4.25;;
47772;SDS011;33534;51.028;13.716;2024-01-27T09:02:22;20.02;;;4.70;;
47772;SDS011;33534;51.028;13.716;2024-01-27T09:04:48;11.38;;;3.05;;
47772;SDS011;33534;51.028;13.716;2024-01-27T09:07:14;16.02;;;3.95;;
47772;SDS011;33534;51.028;13.716;2024-01-27T09:09:39;18.90;;;4.45;;
47772;SDS011;33534;51.028;13.716;2024-01-27T09:12:05;10.85;;;4.00;;
47772;SDS011;33534;51.028;13.716;2024-01-27T09:14:31;18.20;;;4.75;;
47772;SDS011;33534;51.028;13.716;2024-01-27T09:16:58;23.08;;;4.70;;
47772;SDS011;33534;51.028;13.716;2024-01-27T09:19:24;27.15;;;3.83;;
47772;SDS011;33534;51.028;13.716;2024-01-27T09:21:50;20.02;;;4.55;;
47772;SDS011;33534;51.028;13.716;2024-01-27T09:24:16;29.83;;;3.80;;
47772;SDS011;33534;51.028;13.716;2024-01-27T09:26:41;22.55;;;3.80;;
47772;SDS011;33534;51.028;13.716;2024-01-27T09:29:07;20.30;;;3.53;;
47772;SDS011;33534;51.028;13.716;2024-01-27T09:31:34;22.58;;;4.13;;
47772;SDS011;33534;51.028;13.716;2024-01-27T09:34:00;19.00;;;3.33;;
47772;SDS011;33534;51.028;13.716;2024-01-27T09:36:26;9.57;;;3.00;;
47772;SDS011;33534;51.028;13.716;2024-01-27T09:38:52;15.27;;;3.35;;
47772;SDS011;33534;51.028;13.716;2024-01-27T09:41:18;8.25;;;2.38;;
47772;SDS011;33534;51.028;13.716;2024-01-27T09:43:45;15.40;;;3.60;;
47772;SDS011;33534;51.028;13.716;2024-01-27T09:46:14;14.68;;;3.75;;
47772;SDS011;33534;51.028;13.716;2024-01-27T09:48:41;9.88;;;2.72;;
47772;SDS011;33534;51.028;13.716;2024-01-27T09:51:08;8.68;;;3.17;;
47772;SDS011;33534;51.028;13.716;2024-01-27T09:53:35;10.80;;;3.60;;
47772;SDS011;33534;51.028;13.716;2024-01-27T09:56:01;14.88;;;3.00;;
47772;SDS011;33534;51.028;13.716;2024-01-27T09:58:28;10.25;;;3.03;;
47772;SDS011;33534;51.028;13.716;2024-01-27T10:00:58;8.85;;;3.25;;
47772;SDS011;33534;51.028;13.716;2024-01-27T10:03:26;11.38;;;2.58;;
47772;SDS011;33534;51.028;13.716;2024-01-27T10:05:56;9.00;;;3.17;;
47772;SDS011;33534;51.028;13.716;2024-01-27T10:08:23;12.15;;;3.05;;
47772;SDS011;33534;51.028;13.716;2024-01-27T10:10:55;7.95;;;2.38;;
47772;SDS011;33534;51.028;13.716;2024-01-27T10:13:21;7.13;;;2.00;;
47772;SDS011;33534;51.028;13.716;2024-01-27T10:16:00;11.70;;;2.25;;
47772;SDS011;33534;51.028;13.716;2024-01-27T10:18:30;5.95;;;2.45;;
47772;SDS011;33534;51.028;13.716;2024-01-27T10:20:57;14.73;;;2.63;;
47772;SDS011;33534;51.028;13.716;2024-01-27T10:23:23;6.43;;;2.33;;
47772;SDS011;33534;51.028;13.716;2024-01-27T10:25:49;8.93;;;2.25;;
47772;SDS011;33534;51.028;13.716;2024-01-27T10:28:15;7.10;;;2.35;;
47772;SDS011;33534;51.028;13.716;2024-01-27T10:30:41;5.25;;;2.35;;
47772;SDS011;33534;51.028;13.716;2024-01-27T10:33:10;5.50;;;2.60;;
47772;SDS011;33534;51.028;13.716;2024-01-27T10:38:04;4.15;;;1.85;;
47772;SDS011;33534;51.028;13.716;2024-01-27T10:40:30;8.30;;;1.90;;
47772;SDS011;33534;51.028;13.716;2024-01-27T10:45:33;4.90;;;2.00;;
47772;SDS011;33534;51.028;13.716;2024-01-27T10:48:01;5.18;;;2.20;;
47772;SDS011;33534;51.028;13.716;2024-01-27T10:50:28;4.63;;;1.80;;
47772;SDS011;33534;51.028;13.716;2024-01-27T10:52:55;5.40;;;2.20;;
47772;SDS011;33534;51.028;13.716;2024-01-27T10:55:23;4.97;;;1.98;;
47772;SDS011;33534;51.028;13.716;2024-01-27T10:57:49;4.55;;;1.40;;
47772;SDS011;33534;51.028;13.716;2024-01-27T11:00:18;4.00;;;1.40;;
47772;SDS011;33534;51.028;13.716;2024-01-27T11:02:44;3.90;;;1.85;;
47772;SDS011;33534;51.028;13.716;2024-01-27T11:05:11;3.40;;;1.50;;
47772;SDS011;33534;51.028;13.716;2024-01-27T11:07:40;4.18;;;1.45;;
47772;SDS011;33534;51.028;13.716;2024-01-27T11:10:07;3.20;;;1.50;;
47772;SDS011;33534;51.028;13.716;2024-01-27T11:12:33;3.92;;;1.55;;
47772;SDS011;33534;51.028;13.716;2024-01-27T11:14:59;7.13;;;2.00;;
47772;SDS011;33534;51.028;13.716;2024-01-27T11:17:25;4.85;;;1.70;;
47772;SDS011;33534;51.028;13.716;2024-01-27T11:19:51;3.95;;;1.60;;
47772;SDS011;33534;51.028;13.716;2024-01-27T11:22:24;4.15;;;1.48;;
47772;SDS011;33534;51.028;13.716;2024-01-27T11:24:51;4.00;;;1.13;;
47772;SDS011;33534;51.028;13.716;2024-01-27T11:27:18;7.00;;;1.38;;
47772;SDS011;33534;51.028;13.716;2024-01-27T11:29:51;2.35;;;1.48;;
47772;SDS011;33534;51.028;13.716;2024-01-27T11:32:17;2.78;;;1.38;;
47772;SDS011;33534;51.028;13.716;2024-01-27T11:34:43;5.32;;;1.63;;
47772;SDS011;33534;51.028;13.716;2024-01-27T11:37:13;3.30;;;1.60;;
47772;SDS011;33534;51.028;13.716;2024-01-27T11:39:40;4.75;;;1.80;;
47772;SDS011;33534;51.028;13.716;2024-01-27T11:42:09;3.28;;;1.40;;
47772;SDS011;33534;51.028;13.716;2024-01-27T11:44:38;4.50;;;1.65;;
47772;SDS011;33534;51.028;13.716;2024-01-27T11:47:05;1.73;;;1.13;;
47772;SDS011;33534;51.028;13.716;2024-01-27T11:49:38;4.82;;;1.75;;
47772;SDS011;33534;51.028;13.716;2024-01-27T11:52:05;1.85;;;1.23;;
47772;SDS011;33534;51.028;13.716;2024-01-27T11:54:31;3.33;;;1.55;;
47772;SDS011;33534;51.028;13.716;2024-01-27T11:56:57;2.42;;;1.20;;
47772;SDS011;33534;51.028;13.716;2024-01-27T11:59:23;4.03;;;1.90;;
47772;SDS011;33534;51.028;13.716;2024-01-27T12:01:49;3.08;;;1.38;;
47772;SDS011;33534;51.028;13.716;2024-01-27T12:04:15;3.58;;;1.50;;
47772;SDS011;33534;51.028;13.716;2024-01-27T12:06:42;4.93;;;1.35;;
47772;SDS011;33534;51.028;13.716;2024-01-27T12:09:08;1.30;;;0.90;;
47772;SDS011;33534;51.028;13.716;2024-01-27T12:11:38;1.98;;;0.98;;
47772;SDS011;33534;51.028;13.716;2024-01-27T12:14:06;3.20;;;1.55;;
47772;SDS011;33534;51.028;13.716;2024-01-27T12:16:32;3.20;;;1.20;;
47772;SDS011;33534;51.028;13.716;2024-01-27T12:18:58;2.80;;;1.20;;
47772;SDS011;33534;51.028;13.716;2024-01-27T12:21:24;2.13;;;1.05;;
47772;SDS011;33534;51.028;13.716;2024-01-27T12:26:23;2.08;;;1.10;;
47772;SDS011;33534;51.028;13.716;2024-01-27T12:28:50;4.53;;;1.23;;
47772;SDS011;33534;51.028;13.716;2024-01-27T12:31:16;2.92;;;1.20;;
47772;SDS011;33534;51.028;13.716;2024-01-27T12:33:56;3.22;;;1.48;;
47772;SDS011;33534;51.028;13.716;2024-01-27T12:36:24;3.75;;;1.40;;
47772;SDS011;33534;51.028;13.716;2024-01-27T12:39:02;2.55;;;1.38;;
47772;SDS011;33534;51.028;13.716;2024-01-27T12:41:30;4.15;;;1.35;;
47772;SDS011;33534;51.028;13.716;2024-01-27T12:43:58;3.58;;;1.58;;
47772;SDS011;33534;51.028;13.716;2024-01-27T12:46:24;7.40;;;1.33;;
47772;SDS011;33534;51.028;13.716;2024-01-27T12:48:50;4.95;;;1.30;;
47772;SDS011;33534;51.028;13.716;2024-01-27T12:51:16;3.17;;;1.17;;
47772;SDS011;33534;51.028;13.716;2024-01-27T12:53:42;2.45;;;1.23;;
47772;SDS011;33534;51.028;13.716;2024-01-27T12:56:13;4.80;;;1.33;;
47772;SDS011;33534;51.028;13.716;2024-01-27T12:58:40;2.53;;;1.10;;
47772;SDS011;33534;51.028;13.716;2024-01-27T13:01:06;2.97;;;1.30;;
47772;SDS011;33534;51.028;13.716;2024-01-27T13:03:33;3.13;;;1.33;;
47772;SDS011;33534;51.028;13.716;2024-01-27T13:05:59;3.63;;;1.38;;
47772;SDS011;33534;51.028;13.716;2024-01-27T13:08:25;3.80;;;1.45;;
47772;SDS011;33534;51.028;13.716;2024-01-27T13:10:51;1.67;;;1.00;;
47772;SDS011;33534;51.028;13.716;2024-01-27T13:13:16;2.75;;;0.98;;
47772;SDS011;33534;51.028;13.716;2024-01-27T13:15:42;1.88;;;1.20;;
47772;SDS011;33534;51.028;13.716;2024-01-27T13:18:08;2.80;;;1.10;;
47772;SDS011;33534;51.028;13.716;2024-01-27T13:20:35;3.47;;;1.20;;
47772;SDS011;33534;51.028;13.716;2024-01-27T13:23:01;1.90;;;0.75;;
47772;SDS011;33534;51.028;13.716;2024-01-27T13:25:27;3.67;;;1.10;;
47772;SDS011;33534;51.028;13.716;2024-01-27T13:27:52;3.10;;;1.00;;
47772;SDS011;33534;51.028;13.716;2024-01-27T13:30:18;2.20;;;1.20;;
47772;SDS011;33534;51.028;13.716;2024-01-27T13:32:44;2.78;;;1.27;;
47772;SDS011;33534;51.028;13.716;2024-01-27T13:35:10;2.88;;;1.20;;
47772;SDS011;33534;51.028;13.716;2024-01-27T13:37:36;3.65;;;1.17;;
47772;SDS011;33534;51.028;13.716;2024-01-27T13:40:05;2.65;;;1.38;;
47772;SDS011;33534;51.028;13.716;2024-01-27T13:42:35;3.88;;;1.20;;
47772;SDS011;33534;51.028;13.716;2024-01-27T13:45:01;2.13;;;1.05;;
47772;SDS011;33534;51.028;13.716;2024-01-27T13:47:27;1.95;;;1.23;;
47772;SDS011;33534;51.028;13.716;2024-01-27T13:49:53;1.38;;;0.90;;
47772;SDS011;33534;51.028;13.716;2024-01-27T13:52:19;5.15;;;0.95;;
47772;SDS011;33534;51.028;13.716;2024-01-27T13:54:44;1.85;;;0.90;;
47772;SDS011;33534;51.028;13.716;2024-01-27T13:57:10;1.58;;;0.75;;
47772;SDS011;33534;51.028;13.716;2024-01-27T13:59:36;3.17;;;1.30;;
47772;SDS011;33534;51.028;13.716;2024-01-27T14:02:02;1.88;;;0.80;;
47772;SDS011;33534;51.028;13.716;2024-01-27T14:04:28;2.45;;;1.10;;
47772;SDS011;33534;51.028;13.716;2024-01-27T14:06:54;2.03;;;1.02;;
47772;SDS011;33534;51.028;13.716;2024-01-27T14:09:21;8.02;;;2.05;;
47772;SDS011;33534;51.028;13.716;2024-01-27T14:11:47;16.48;;;2.63;;
47772;SDS011;33534;51.028;13.716;2024-01-27T14:14:13;13.90;;;2.20;;
47772;SDS011;33534;51.028;13.716;2024-01-27T14:16:38;7.90;;;1.58;;
47772;SDS011;33534;51.028;13.716;2024-01-27T14:19:05;5.07;;;1.50;;
47772;SDS011;33534;51.028;13.716;2024-01-27T14:21:31;4.35;;;1.05;;
47772;SDS011;33534;51.028;13.716;2024-01-27T14:23:57;5.57;;;1.50;;